Time;durP1;ratioP1;P1;durP2;ratioP2;P2;SDS_P1;SDS_P2;PMS_P1;PMS_P2;Temp;Humidity;BMP_temperature;BMP_pressure;BME280_temperature;BME280_humidity;BME280_pressure;Samples;Min_cycle;Max_cycle;Signal;HPM_P1;HPM_P2
2021/09/29 00:02:18;;;;;;;21.70;13.27;;;7.50;99.90;;;;;;5054233;28;20045;-83
2021/09/29 00:04:44;;;;;;;17.98;12.60;;;7.50;99.90;;;;;;5054039;28;20429;-83
2021/09/29 00:07:10;;;;;;;18.88;12.93;;;7.50;99.90;;;;;;5055474;28;20017;-83
2021/09/29 00:09:36;;;;;;;21.05;12.73;;;7.40;99.90;;;;;;5053822;28;20025;-84
2021/09/29 00:12:02;;;;;;;23.10;13.90;;;7.40;99.90;;;;;;5055177;28;20134;-83
2021/09/29 00:14:28;;;;;;;20.73;13.50;;;7.40;99.90;;;;;;5053716;28;20040;-84
2021/09/29 00:16:53;;;;;;;22.50;13.63;;;7.40;99.90;;;;;;5055342;28;20024;-83
2021/09/29 00:19:19;;;;;;;21.95;14.40;;;7.40;99.90;;;;;;5053404;28;20380;-83
2021/09/29 00:21:45;;;;;;;17.95;12.05;;;7.40;99.90;;;;;;5053757;28;20040;-84
2021/09/29 00:24:10;;;;;;;20.40;13.25;;;7.40;99.90;;;;;;5053261;28;20029;-84
2021/09/29 00:26:36;;;;;;;18.50;13.43;;;7.40;99.90;;;;;;5052648;28;20033;-83
2021/09/29 00:29:02;;;;;;;16.30;12.32;;;7.30;99.90;;;;;;5051910;28;20431;-83
2021/09/29 00:34:06;;;;;;;20.90;13.52;;;7.30;99.90;;;;;;5054428;28;20037;-82
2021/09/29 00:36:34;;;;;;;18.23;13.15;;;7.30;99.90;;;;;;5053560;28;20056;-83
2021/09/29 00:39:00;;;;;;;22.90;12.93;;;7.30;99.90;;;;;;5053125;28;20368;-83
2021/09/29 00:41:25;;;;;;;21.35;13.82;;;7.30;99.90;;;;;;5053525;28;20025;-83
2021/09/29 00:43:51;;;;;;;19.27;13.85;;;7.20;99.90;;;;;;5054820;28;20028;-83
2021/09/29 00:46:17;;;;;;;18.40;13.68;;;7.20;99.90;;;;;;5053483;28;20025;-83
2021/09/29 00:48:43;;;;;;;19.08;12.88;;;7.20;99.90;;;;;;5052440;28;20040;-83
2021/09/29 00:51:10;;;;;;;19.15;13.23;;;7.20;99.90;;;;;;5053166;28;20033;-83
2021/09/29 00:53:36;;;;;;;20.15;12.93;;;7.20;99.90;;;;;;5053291;28;20025;-83
2021/09/29 00:56:02;;;;;;;18.60;12.80;;;7.20;99.90;;;;;;5054366;28;20032;-84
2021/09/29 00:58:28;;;;;;;16.60;11.68;;;7.20;99.90;;;;;;5054107;28;20066;-83
2021/09/29 01:00:54;;;;;;;19.77;12.95;;;7.10;99.90;;;;;;5054554;28;20056;-83
2021/09/29 01:03:20;;;;;;;17.13;12.07;;;7.20;99.90;;;;;;5052687;28;20084;-84
2021/09/29 01:05:47;;;;;;;18.83;12.45;;;7.10;99.90;;;;;;5054248;28;20041;-84
2021/09/29 01:08:15;;;;;;;16.02;11.55;;;7.10;99.90;;;;;;5052875;28;20029;-84
2021/09/29 01:10:56;;;;;;;16.95;12.30;;;7.10;99.90;;;;;;5054269;28;20028;-84
2021/09/29 01:13:37;;;;;;;16.75;11.85;;;7.10;99.90;;;;;;5052609;28;20028;-83
2021/09/29 01:16:07;;;;;;;17.67;11.77;;;7.10;99.90;;;;;;5054315;28;20028;-83
2021/09/29 01:18:39;;;;;;;17.23;12.07;;;7.00;99.90;;;;;;5053215;28;20029;-83
2021/09/29 01:21:08;;;;;;;16.42;12.32;;;7.00;99.90;;;;;;5053851;28;20029;-83
2021/09/29 01:23:45;;;;;;;18.33;11.68;;;7.00;99.90;;;;;;5053436;28;20458;-84
2021/09/29 01:26:16;;;;;;;19.67;12.20;;;6.90;99.90;;;;;;5052314;28;20486;-83
2021/09/29 01:28:52;;;;;;;20.85;11.68;;;6.80;99.90;;;;;;5052688;28;20025;-84
2021/09/29 01:31:20;;;;;;;18.00;11.15;;;6.80;99.90;;;;;;5052617;28;20025;-84
2021/09/29 01:33:47;;;;;;;18.13;12.95;;;6.80;99.90;;;;;;5053751;28;20112;-84
2021/09/29 01:36:13;;;;;;;19.63;11.98;;;6.80;99.90;;;;;;5052181;28;20099;-84
2021/09/29 01:38:42;;;;;;;19.80;12.38;;;6.80;99.90;;;;;;5053243;28;20128;-84
2021/09/29 01:41:08;;;;;;;16.98;11.88;;;6.80;99.90;;;;;;5051801;28;20021;-84
2021/09/29 01:43:34;;;;;;;20.73;12.88;;;6.80;99.90;;;;;;5052984;28;20028;-83
2021/09/29 01:46:00;;;;;;;22.30;12.45;;;6.80;99.90;;;;;;5052336;28;20110;-83
2021/09/29 01:48:26;;;;;;;15.55;11.77;;;6.80;99.90;;;;;;5052117;28;20072;-84
2021/09/29 01:50:56;;;;;;;19.40;12.65;;;6.80;99.90;;;;;;5052029;28;20017;-83
2021/09/29 01:53:24;;;;;;;23.40;12.13;;;6.70;99.90;;;;;;5049771;28;20108;-83
2021/09/29 01:55:50;;;;;;;17.42;11.57;;;6.80;99.90;;;;;;5053232;28;20029;-83
2021/09/29 01:58:17;;;;;;;17.65;11.38;;;6.80;99.90;;;;;;5048187;28;20021;-83
2021/09/29 02:00:43;;;;;;;19.15;11.93;;;6.80;99.90;;;;;;5052971;28;20037;-84
2021/09/29 02:03:10;;;;;;;20.45;11.20;;;6.80;99.90;;;;;;5046601;28;20032;-84
2021/09/29 02:05:37;;;;;;;16.42;11.93;;;6.80;99.90;;;;;;5031989;28;20033;-84
2021/09/29 02:08:07;;;;;;;19.80;11.32;;;6.80;99.90;;;;;;5046458;28;20387;-84
2021/09/29 02:10:33;;;;;;;16.83;12.18;;;6.80;99.90;;;;;;5072840;28;20025;-84
2021/09/29 02:12:59;;;;;;;18.33;10.48;;;6.80;99.90;;;;;;5052863;28;20497;-84
2021/09/29 02:15:25;;;;;;;17.42;11.05;;;6.80;99.90;;;;;;5053106;28;20096;-84
2021/09/29 02:17:52;;;;;;;21.42;12.05;;;6.80;99.90;;;;;;5052960;28;20025;-84
2021/09/29 02:20:19;;;;;;;19.83;10.80;;;6.70;99.90;;;;;;5052251;28;20467;-83
2021/09/29 02:22:45;;;;;;;15.52;10.35;;;6.70;99.90;;;;;;5047852;28;20021;-83
2021/09/29 02:25:12;;;;;;;16.50;11.43;;;6.80;99.90;;;;;;5051708;28;20025;-82
2021/09/29 02:27:38;;;;;;;18.75;11.23;;;6.70;99.90;;;;;;5051659;28;20494;-83
2021/09/29 02:30:07;;;;;;;17.27;11.48;;;6.70;99.90;;;;;;5052929;28;20387;-84
2021/09/29 02:32:35;;;;;;;13.52;10.57;;;6.70;99.90;;;;;;5051406;28;20013;-83
2021/09/29 02:35:00;;;;;;;16.08;10.20;;;6.60;99.90;;;;;;5051589;28;20075;-83
2021/09/29 02:37:26;;;;;;;14.50;10.13;;;6.70;99.90;;;;;;5052602;28;20409;-82
2021/09/29 02:39:52;;;;;;;15.05;10.63;;;6.70;99.90;;;;;;5050698;28;20021;-83
2021/09/29 02:42:17;;;;;;;16.08;11.10;;;6.60;99.90;;;;;;5051496;28;20017;-83
2021/09/29 02:44:43;;;;;;;17.23;10.23;;;6.60;99.90;;;;;;5052465;28;20033;-84
2021/09/29 02:47:09;;;;;;;19.83;10.77;;;6.60;99.90;;;;;;5052702;28;20044;-83
2021/09/29 02:49:34;;;;;;;16.52;10.55;;;6.50;99.90;;;;;;5052649;28;20509;-83
2021/09/29 02:52:00;;;;;;;16.52;9.88;;;6.50;99.90;;;;;;5042305;28;20052;-83
2021/09/29 02:54:26;;;;;;;17.48;10.90;;;6.40;99.90;;;;;;5045202;28;20113;-84
2021/09/29 02:56:51;;;;;;;17.73;10.63;;;6.40;99.90;;;;;;5055166;28;20065;-83
2021/09/29 02:59:17;;;;;;;15.88;10.73;;;6.40;99.90;;;;;;5046922;28;20037;-85
2021/09/29 03:01:43;;;;;;;18.42;10.32;;;6.40;99.90;;;;;;5056411;28;20028;-84
2021/09/29 03:04:09;;;;;;;15.73;10.10;;;6.40;99.90;;;;;;5056700;28;20082;-84
2021/09/29 03:06:35;;;;;;;14.07;10.50;;;6.30;99.90;;;;;;5056234;28;20168;-84
2021/09/29 03:09:01;;;;;;;14.43;9.82;;;6.30;99.90;;;;;;5056651;28;20028;-84
2021/09/29 03:11:27;;;;;;;18.02;9.90;;;6.30;99.90;;;;;;5055053;28;20527;-84
2021/09/29 03:13:53;;;;;;;16.67;10.38;;;6.40;99.90;;;;;;5056165;28;20037;-84
2021/09/29 03:16:19;;;;;;;16.73;10.52;;;6.30;99.90;;;;;;5056371;28;20021;-83
2021/09/29 03:18:47;;;;;;;15.77;11.25;;;6.30;99.90;;;;;;5054793;28;20033;-84
2021/09/29 03:21:13;;;;;;;17.33;10.55;;;6.30;99.90;;;;;;5056149;28;20029;-84
2021/09/29 03:23:39;;;;;;;15.88;10.10;;;6.30;99.90;;;;;;5039836;28;20079;-84
2021/09/29 03:26:04;;;;;;;16.27;10.70;;;6.20;99.90;;;;;;5041816;28;20036;-83
2021/09/29 03:28:30;;;;;;;13.82;10.02;;;6.20;99.90;;;;;;5054794;28;20025;-83
2021/09/29 03:30:56;;;;;;;15.88;9.85;;;6.20;99.90;;;;;;5054964;28;20013;-83
2021/09/29 03:33:21;;;;;;;15.77;10.50;;;6.20;99.90;;;;;;5055776;28;20025;-83
2021/09/29 03:35:47;;;;;;;15.95;9.68;;;6.20;99.90;;;;;;5055981;28;20071;-83
2021/09/29 03:38:13;;;;;;;14.32;9.80;;;6.20;99.90;;;;;;5054632;28;20032;-83
2021/09/29 03:40:39;;;;;;;13.63;9.57;;;6.20;99.90;;;;;;5054511;28;20033;-83
2021/09/29 03:43:05;;;;;;;17.15;10.27;;;6.20;99.90;;;;;;5054681;28;20471;-83
2021/09/29 03:45:31;;;;;;;15.55;10.00;;;6.20;99.90;;;;;;5054590;28;20462;-83
2021/09/29 03:47:56;;;;;;;14.73;10.55;;;6.20;99.90;;;;;;5054346;28;20021;-83
2021/09/29 03:50:22;;;;;;;18.75;9.75;;;6.20;99.90;;;;;;5052174;28;20486;-84
2021/09/29 03:52:48;;;;;;;17.02;10.30;;;6.20;99.90;;;;;;5052673;28;20718;-84
2021/09/29 03:55:14;;;;;;;16.83;10.80;;;6.10;99.90;;;;;;5053917;28;20028;-84
2021/09/29 03:57:40;;;;;;;14.15;9.38;;;6.10;99.90;;;;;;5052182;28;20037;-84
2021/09/29 04:00:09;;;;;;;17.05;10.60;;;6.10;99.90;;;;;;5053371;28;20079;-84
2021/09/29 04:02:35;;;;;;;16.38;9.68;;;6.00;99.90;;;;;;5053767;28;20048;-84
2021/09/29 04:05:01;;;;;;;17.98;10.55;;;6.00;99.90;;;;;;5053408;28;20032;-84
2021/09/29 04:07:27;;;;;;;19.13;10.25;;;6.00;99.90;;;;;;5052743;28;20029;-84
2021/09/29 04:09:53;;;;;;;16.80;9.63;;;6.00;99.90;;;;;;5054761;28;20017;-83
2021/09/29 04:12:21;;;;;;;15.82;9.77;;;6.00;99.90;;;;;;5053286;28;20021;-82
2021/09/29 04:14:47;;;;;;;17.25;9.68;;;6.00;99.90;;;;;;5033409;28;20029;-83
2021/09/29 04:17:13;;;;;;;15.75;8.82;;;5.90;99.90;;;;;;5033762;28;20040;-83
2021/09/29 04:19:39;;;;;;;14.57;10.38;;;6.00;99.90;;;;;;5035191;28;20467;-83
2021/09/29 04:22:10;;;;;;;15.75;10.65;;;5.90;99.90;;;;;;5050942;28;20024;-83
2021/09/29 04:24:37;;;;;;;16.05;10.43;;;5.90;99.90;;;;;;5053870;28;20060;-84
2021/09/29 04:27:03;;;;;;;15.82;10.20;;;5.90;99.90;;;;;;5054943;28;20048;-84
2021/09/29 04:29:28;;;;;;;17.90;11.13;;;5.90;99.90;;;;;;5052499;28;20078;-84
2021/09/29 04:31:54;;;;;;;16.30;10.20;;;5.80;99.90;;;;;;5055146;28;20025;-84
2021/09/29 04:34:20;;;;;;;16.55;10.32;;;5.80;99.90;;;;;;5053625;28;20071;-84
2021/09/29 04:36:47;;;;;;;16.20;10.55;;;5.80;99.90;;;;;;5053549;28;20025;-83
2021/09/29 04:39:13;;;;;;;18.88;10.98;;;5.80;99.90;;;;;;5054500;28;20111;-83
2021/09/29 04:41:39;;;;;;;17.77;12.23;;;5.80;99.90;;;;;;5053598;28;20027;-84
2021/09/29 04:44:05;;;;;;;17.45;11.07;;;5.80;99.90;;;;;;5054878;28;20063;-84
2021/09/29 04:46:31;;;;;;;17.88;10.63;;;5.70;99.90;;;;;;5053442;28;20017;-84
2021/09/29 04:48:57;;;;;;;17.70;12.00;;;5.70;99.90;;;;;;5053539;28;20013;-85
2021/09/29 04:51:22;;;;;;;16.65;10.48;;;5.70;99.90;;;;;;5053137;28;20394;-84
2021/09/29 04:53:48;;;;;;;18.73;11.60;;;5.70;99.90;;;;;;5053301;28;20036;-84
2021/09/29 04:56:14;;;;;;;20.80;11.93;;;5.70;99.90;;;;;;5053330;28;20025;-84
2021/09/29 04:58:40;;;;;;;18.40;11.73;;;5.70;99.90;;;;;;5052528;28;20028;-84
2021/09/29 05:01:06;;;;;;;18.42;12.07;;;5.70;99.90;;;;;;5052501;28;20032;-83
2021/09/29 05:03:33;;;;;;;21.73;13.00;;;5.70;99.90;;;;;;5054378;28;20075;-84
2021/09/29 05:05:59;;;;;;;30.85;14.18;;;5.70;99.90;;;;;;5053931;28;20071;-85
2021/09/29 05:08:28;;;;;;;20.30;12.43;;;5.70;99.90;;;;;;5052897;28;20021;-84
2021/09/29 05:11:08;;;;;;;20.23;12.60;;;5.70;99.90;;;;;;5052830;28;20119;-83
2021/09/29 05:13:35;;;;;;;21.63;13.55;;;5.70;99.90;;;;;;5055926;28;20044;-84
2021/09/29 05:16:04;;;;;;;24.55;14.95;;;5.70;99.90;;;;;;5053032;28;20049;-84
2021/09/29 05:18:30;;;;;;;21.55;13.68;;;5.70;99.90;;;;;;5044196;28;20037;-84
2021/09/29 05:20:56;;;;;;;26.25;14.07;;;5.70;99.90;;;;;;5032611;28;20034;-84
2021/09/29 05:23:22;;;;;;;23.27;14.45;;;5.70;99.90;;;;;;5052017;28;20040;-83
2021/09/29 05:25:47;;;;;;;23.30;14.85;;;5.80;99.90;;;;;;5051148;28;20021;-85
2021/09/29 05:28:16;;;;;;;23.83;13.60;;;5.90;99.90;;;;;;5051547;28;20629;-84
2021/09/29 05:30:42;;;;;;;25.98;15.95;;;5.90;99.90;;;;;;5051165;28;20033;-83
2021/09/29 05:33:07;;;;;;;29.92;18.23;;;6.00;99.90;;;;;;5050024;28;20060;-82
2021/09/29 05:35:33;;;;;;;28.83;17.20;;;6.10;99.90;;;;;;5051392;28;20068;-84
2021/09/29 05:37:59;;;;;;;30.52;18.30;;;6.10;99.90;;;;;;5052402;28;20021;-83
2021/09/29 05:40:25;;;;;;;33.97;18.80;;;6.20;99.90;;;;;;5051991;28;20502;-83
2021/09/29 05:42:51;;;;;;;32.67;18.77;;;6.10;99.90;;;;;;5052408;28;20392;-85
2021/09/29 05:45:17;;;;;;;31.92;18.88;;;6.20;99.90;;;;;;5053565;28;20021;-84
2021/09/29 05:47:43;;;;;;;30.80;18.92;;;6.20;99.90;;;;;;5052216;28;20019;-83
2021/09/29 05:50:09;;;;;;;32.47;17.95;;;6.30;99.90;;;;;;5050865;28;20029;-83
2021/09/29 05:52:35;;;;;;;28.55;19.38;;;6.30;99.90;;;;;;5052418;28;20558;-83
2021/09/29 05:55:02;;;;;;;31.73;18.88;;;6.30;99.90;;;;;;5052671;28;20033;-82
2021/09/29 05:57:27;;;;;;;31.38;17.95;;;6.40;99.90;;;;;;5052812;28;20033;-83
2021/09/29 05:59:53;;;;;;;36.47;20.00;;;6.40;99.90;;;;;;5052815;28;20062;-83
2021/09/29 06:02:19;;;;;;;31.55;18.95;;;6.40;99.90;;;;;;5049209;28;20495;-83
2021/09/29 06:04:44;;;;;;;30.67;19.45;;;6.40;99.90;;;;;;5049125;28;20035;-82
2021/09/29 06:07:11;;;;;;;32.90;19.50;;;6.40;99.90;;;;;;5047238;28;20511;-81
2021/09/29 06:09:40;;;;;;;36.60;20.40;;;6.50;99.90;;;;;;5049209;28;20024;-81
2021/09/29 06:12:11;;;;;;;37.30;19.73;;;6.50;99.90;;;;;;5049622;28;20497;-82
2021/09/29 06:14:39;;;;;;;38.60;19.38;;;6.60;99.90;;;;;;5048221;28;20029;-82
2021/09/29 06:19:50;;;;;;;34.35;21.35;;;6.50;99.90;;;;;;5050522;28;20071;-82
2021/09/29 06:22:16;;;;;;;37.92;20.67;;;6.50;99.90;;;;;;5050619;28;20078;-82
2021/09/29 06:24:42;;;;;;;35.40;20.48;;;6.50;99.90;;;;;;5051535;28;20029;-82
2021/09/29 06:27:08;;;;;;;32.47;20.90;;;6.60;99.90;;;;;;5051004;28;20090;-82
2021/09/29 06:29:34;;;;;;;30.42;18.73;;;6.60;99.90;;;;;;5049132;28;20017;-82
2021/09/29 06:32:02;;;;;;;34.38;19.52;;;6.60;99.90;;;;;;5050758;28;20025;-82
2021/09/29 06:34:27;;;;;;;35.67;20.42;;;6.60;99.90;;;;;;5050692;28;20036;-82
2021/09/29 06:36:53;;;;;;;34.78;20.25;;;6.60;99.90;;;;;;5048940;28;20033;-82
2021/09/29 06:39:19;;;;;;;31.52;18.80;;;6.70;99.90;;;;;;5048903;28;20390;-82
2021/09/29 06:41:46;;;;;;;33.67;19.63;;;6.70;99.90;;;;;;5050650;28;20410;-82
2021/09/29 06:44:13;;;;;;;39.90;20.17;;;6.80;99.90;;;;;;5051726;28;20025;-82
2021/09/29 06:46:39;;;;;;;29.20;18.50;;;6.80;99.90;;;;;;5052815;28;20017;-82
2021/09/29 06:49:05;;;;;;;36.47;20.48;;;6.80;99.90;;;;;;5051467;28;20025;-82
2021/09/29 06:51:30;;;;;;;36.55;20.45;;;6.80;99.90;;;;;;5051446;28;20125;-82
2021/09/29 06:53:56;;;;;;;28.83;19.02;;;6.90;99.90;;;;;;5052677;28;20500;-82
2021/09/29 06:56:22;;;;;;;31.45;18.83;;;7.00;99.90;;;;;;5051408;28;20390;-82
2021/09/29 06:58:51;;;;;;;33.78;20.08;;;7.00;99.90;;;;;;5050944;28;20025;-82
2021/09/29 07:01:17;;;;;;;30.50;18.75;;;7.10;99.90;;;;;;5052633;28;20031;-82
2021/09/29 07:03:43;;;;;;;35.42;19.67;;;7.10;99.90;;;;;;5051338;28;20025;-82
2021/09/29 07:06:09;;;;;;;32.88;19.33;;;7.10;99.90;;;;;;5052237;28;20013;-82
2021/09/29 07:08:36;;;;;;;38.65;19.98;;;7.30;99.90;;;;;;5051243;28;20052;-82
2021/09/29 07:11:02;;;;;;;44.63;22.48;;;7.30;99.90;;;;;;5050906;28;20021;-82
2021/09/29 07:13:28;;;;;;;35.95;20.10;;;7.20;99.90;;;;;;5050954;28;20061;-82
2021/09/29 07:15:54;;;;;;;41.10;21.40;;;7.30;99.90;;;;;;5051342;28;20509;-82
2021/09/29 07:18:20;;;;;;;40.00;22.98;;;7.30;99.90;;;;;;5050941;28;20090;-82
2021/09/29 07:20:45;;;;;;;32.75;18.50;;;7.40;99.90;;;;;;5052517;28;20040;-82
2021/09/29 07:23:11;;;;;;;35.05;19.23;;;7.40;99.90;;;;;;5050173;28;20033;-82
2021/09/29 07:25:38;;;;;;;34.33;19.02;;;7.30;99.90;;;;;;5051120;28;20033;-81
2021/09/29 07:28:04;;;;;;;31.98;20.10;;;7.40;99.90;;;;;;5052404;28;20104;-82
2021/09/29 07:30:30;;;;;;;30.42;18.67;;;7.40;99.90;;;;;;5050975;28;20040;-82
2021/09/29 07:32:58;;;;;;;35.00;19.08;;;7.40;99.90;;;;;;5051074;28;20021;-82
2021/09/29 07:35:23;;;;;;;37.42;21.05;;;7.40;99.90;;;;;;5050777;28;20025;-82
2021/09/29 07:37:50;;;;;;;38.70;20.13;;;7.40;99.90;;;;;;5050799;28;20036;-82
2021/09/29 07:40:16;;;;;;;35.72;19.27;;;7.40;99.90;;;;;;5050753;28;20044;-82
2021/09/29 07:42:42;;;;;;;29.33;18.65;;;7.40;99.90;;;;;;5053826;28;20467;-82
2021/09/29 07:45:09;;;;;;;35.40;20.63;;;7.40;99.90;;;;;;5054645;28;20462;-82
2021/09/29 07:47:35;;;;;;;34.88;18.80;;;7.40;99.90;;;;;;5054387;28;20051;-82
2021/09/29 07:50:01;;;;;;;36.35;22.52;;;7.50;99.90;;;;;;5054384;28;20032;-82
2021/09/29 07:52:27;;;;;;;34.42;20.27;;;7.50;99.90;;;;;;5054511;28;20024;-82
2021/09/29 07:54:53;;;;;;;32.92;19.38;;;7.50;99.90;;;;;;5055459;28;20072;-82
2021/09/29 07:57:19;;;;;;;39.70;23.75;;;7.50;99.90;;;;;;5054463;28;20431;-82
2021/09/29 07:59:45;;;;;;;37.17;21.85;;;7.50;99.90;;;;;;5055703;28;20099;-82
2021/09/29 08:02:11;;;;;;;37.35;21.95;;;7.60;99.90;;;;;;5054403;28;20382;-82
2021/09/29 08:04:36;;;;;;;37.20;20.65;;;7.60;99.90;;;;;;5054086;28;20033;-82
2021/09/29 08:07:02;;;;;;;35.95;20.73;;;7.60;99.90;;;;;;5055498;28;20037;-81
2021/09/29 08:09:28;;;;;;;33.63;19.30;;;7.70;99.90;;;;;;5053782;28;20028;-82
2021/09/29 08:11:54;;;;;;;35.88;20.25;;;7.70;99.90;;;;;;5054266;28;20401;-82
2021/09/29 08:14:20;;;;;;;29.40;18.05;;;7.70;99.90;;;;;;5055021;28;20032;-82
2021/09/29 08:16:47;;;;;;;35.55;20.65;;;7.90;99.90;;;;;;5053630;28;20028;-82
2021/09/29 08:19:12;;;;;;;36.28;21.27;;;7.90;99.90;;;;;;5055006;28;20395;-81
2021/09/29 08:21:39;;;;;;;35.28;20.58;;;7.90;99.90;;;;;;5054046;28;20029;-82
2021/09/29 08:24:12;;;;;;;36.55;22.10;;;7.90;99.90;;;;;;5055160;28;20021;-82
2021/09/29 08:26:52;;;;;;;39.95;21.00;;;8.00;99.90;;;;;;5055220;28;20082;-82
2021/09/29 08:29:37;;;;;;;38.55;22.13;;;8.00;99.90;;;;;;5055081;28;20029;-82
2021/09/29 08:44:52;;;;;;;33.22;20.42;;;8.00;99.90;;;;;;5055147;28;20544;-82
2021/09/29 08:47:37;;;;;;;33.33;20.88;;;8.10;99.90;;;;;;5050507;28;20082;-82
2021/09/29 08:52:46;;;;;;;35.22;22.38;;;8.20;99.90;;;;;;5039165;28;20038;-82
2021/09/29 09:16:37;;;;;;;38.88;22.33;;;8.20;99.90;;;;;;5054550;28;20063;-82
2021/09/29 09:19:07;;;;;;;40.08;23.70;;;8.20;99.90;;;;;;5052885;28;20029;-84
2021/09/29 09:21:36;;;;;;;42.05;22.98;;;8.20;99.90;;;;;;5052700;28;20021;-82
2021/09/29 09:24:13;;;;;;;35.45;20.77;;;8.10;99.90;;;;;;5053867;28;20536;-82
2021/09/29 09:26:38;;;;;;;36.45;21.85;;;8.20;99.90;;;;;;5041895;28;20029;-83
2021/09/29 09:29:08;;;;;;;40.65;22.85;;;8.20;99.90;;;;;;5066025;28;20541;-82
2021/09/29 09:31:34;;;;;;;38.25;22.90;;;8.40;99.90;;;;;;5033999;28;20475;-82
2021/09/29 09:34:04;;;;;;;37.25;20.88;;;8.50;99.90;;;;;;5039954;28;20021;-82
2021/09/29 09:36:33;;;;;;;32.00;19.50;;;8.60;99.90;;;;;;5051971;28;20025;-82
2021/09/29 09:39:02;;;;;;;38.42;20.33;;;8.50;99.90;;;;;;5053795;28;20056;-82
2021/09/29 09:41:28;;;;;;;33.55;18.95;;;8.60;99.90;;;;;;5052197;28;20493;-82
2021/09/29 09:43:58;;;;;;;34.10;20.20;;;8.60;99.90;;;;;;5052395;28;20111;-83
2021/09/29 09:46:24;;;;;;;35.95;18.83;;;8.60;99.90;;;;;;5052039;28;20028;-82
2021/09/29 09:49:07;;;;;;;35.50;19.73;;;8.70;99.90;;;;;;5052301;28;20024;-82
2021/09/29 09:51:45;;;;;;;34.17;18.75;;;8.80;99.90;;;;;;5051970;28;20433;-83
2021/09/29 09:54:11;;;;;;;36.05;18.70;;;8.90;99.90;;;;;;5052101;28;20025;-82
2021/09/29 09:56:41;;;;;;;33.22;19.27;;;9.00;99.90;;;;;;5052241;28;20017;-82
2021/09/29 09:59:07;;;;;;;37.83;21.05;;;9.00;99.90;;;;;;5053316;28;20031;-82
2021/09/29 10:01:34;;;;;;;35.03;18.95;;;8.90;99.90;;;;;;5053405;28;20025;-82
2021/09/29 10:04:14;;;;;;;38.65;20.73;;;9.00;99.90;;;;;;5051838;28;20067;-82
2021/09/29 10:06:41;;;;;;;41.45;21.58;;;9.00;99.90;;;;;;5051510;28;20028;-82
2021/09/29 10:14:47;;;;;;;32.30;19.40;;;9.40;99.90;;;;;;5053600;28;20454;-82
2021/09/29 10:28:12;;;;;;;36.97;21.00;;;9.60;99.90;;;;;;5033406;28;20117;-83
2021/09/29 10:30:48;;;;;;;35.78;20.95;;;9.70;99.90;;;;;;5031840;28;20438;-83
2021/09/29 10:33:26;;;;;;;38.47;20.20;;;9.70;99.90;;;;;;5048315;28;20501;-83
2021/09/29 10:36:42;;;;;;;39.65;20.90;;;9.70;99.90;;;;;;5032851;28;20044;-83
2021/09/29 10:42:18;;;;;;;34.03;18.40;;;9.80;99.90;;;;;;5023720;28;20029;-82
2021/09/29 10:47:44;;;;;;;42.30;23.02;;;9.80;99.90;;;;;;5052164;28;20037;-82
2021/09/29 11:04:38;;;;;;;43.70;22.73;;;10.40;99.90;;;;;;5052906;28;20068;-82
2021/09/29 11:07:26;;;;;;;40.70;23.35;;;10.30;99.90;;;;;;5051207;28;20511;-82
2021/09/29 11:10:53;;;;;;;37.60;21.38;;;10.40;99.90;;;;;;5051309;28;20094;-82
2021/09/29 11:34:48;;;;;;;37.85;21.45;;;10.80;99.90;;;;;;5056088;28;20068;-82
2021/09/29 12:10:25;;;;;;;43.28;24.20;;;11.40;99.90;;;;;;5049055;28;20029;-85
2021/09/29 12:12:52;;;;;;;36.70;21.98;;;11.50;99.90;;;;;;5052054;28;20029;-84
2021/09/29 12:15:18;;;;;;;36.65;22.60;;;11.50;99.90;;;;;;5052347;28;20025;-83
2021/09/29 12:17:49;;;;;;;41.00;23.45;;;11.50;99.90;;;;;;5053491;28;20029;-83
2021/09/29 12:20:18;;;;;;;39.05;23.45;;;11.50;99.90;;;;;;5052317;28;20036;-82
2021/09/29 12:23:11;;;;;;;37.05;22.15;;;11.50;99.90;;;;;;5052201;28;20440;-83
2021/09/29 12:25:41;;;;;;;36.50;22.13;;;11.60;99.90;;;;;;5048310;28;20041;-80
2021/09/29 12:31:05;;;;;;;38.75;23.15;;;11.70;99.90;;;;;;5053869;28;20037;-82
2021/09/29 12:36:32;;;;;;;38.20;24.70;;;11.80;99.90;;;;;;5053009;28;20036;-82
2021/09/29 12:38:59;;;;;;;40.17;23.25;;;11.80;99.90;;;;;;5050036;28;20108;-81
2021/09/29 12:41:27;;;;;;;37.85;23.65;;;11.80;99.90;;;;;;5053071;28;20090;-82
2021/09/29 12:44:13;;;;;;;38.30;23.33;;;11.80;99.90;;;;;;5052273;28;20029;-81
2021/09/29 12:46:39;;;;;;;41.50;23.67;;;11.90;99.90;;;;;;5053210;28;20086;-82
2021/09/29 12:49:16;;;;;;;36.45;23.35;;;11.90;99.90;;;;;;5050754;28;20079;-81
2021/09/29 12:51:47;;;;;;;34.22;21.67;;;12.00;99.90;;;;;;5052437;28;20049;-82
2021/09/29 12:54:20;;;;;;;35.90;21.98;;;12.00;99.90;;;;;;5052004;28;20359;-82
2021/09/29 12:56:45;;;;;;;35.78;23.00;;;12.00;99.90;;;;;;5051558;28;20025;-82
2021/09/29 12:59:11;;;;;;;37.58;23.20;;;12.10;99.90;;;;;;5052303;28;20051;-82
2021/09/29 13:01:36;;;;;;;30.35;20.73;;;12.20;99.90;;;;;;5052946;28;20021;-82
2021/09/29 13:04:02;;;;;;;34.83;21.63;;;12.20;99.90;;;;;;5050586;28;20501;-82
2021/09/29 13:06:28;;;;;;;40.85;22.48;;;12.30;99.90;;;;;;5052956;28;20028;-81
2021/09/29 13:08:53;;;;;;;39.38;23.67;;;12.40;99.90;;;;;;5051267;28;20032;-83
2021/09/29 13:11:19;;;;;;;35.17;21.77;;;12.40;99.90;;;;;;5047800;28;20025;-82
2021/09/29 13:13:45;;;;;;;36.88;23.30;;;12.50;99.90;;;;;;5051132;28;20120;-82
2021/09/29 13:16:10;;;;;;;32.22;22.23;;;12.60;99.90;;;;;;5050665;28;20040;-81
2021/09/29 13:21:13;;;;;;;37.08;23.02;;;12.80;99.90;;;;;;5050809;28;20041;-82
2021/09/29 13:23:48;;;;;;;33.92;21.67;;;12.90;99.90;;;;;;5051295;28;20060;-81
2021/09/29 13:37:12;;;;;;;44.67;23.77;;;13.50;99.90;;;;;;5051239;28;20505;-82
2021/09/29 13:39:37;;;;;;;35.42;22.73;;;13.60;99.90;;;;;;5049233;28;20045;-83
2021/09/29 13:42:03;;;;;;;37.95;23.25;;;13.70;99.90;;;;;;5049790;28;20531;-81
2021/09/29 13:44:29;;;;;;;33.25;21.73;;;13.70;99.90;;;;;;5045383;28;20022;-83
2021/09/29 13:46:55;;;;;;;36.38;22.35;;;13.80;99.90;;;;;;5030253;28;20026;-82
2021/09/29 13:49:22;;;;;;;32.58;22.13;;;13.80;99.90;;;;;;5030119;28;20030;-83
2021/09/29 13:51:51;;;;;;;32.88;22.30;;;13.90;99.90;;;;;;5032041;28;20017;-83
2021/09/29 13:54:22;;;;;;;32.80;20.88;;;13.90;99.90;;;;;;5036295;28;20036;-84
2021/09/29 13:57:00;;;;;;;31.58;21.45;;;13.90;99.90;;;;;;5050747;28;20474;-83
2021/09/29 14:31:09;;;;;;;61.92;39.63;;;14.00;99.90;;;;;;5053379;28;20032;-82
2021/09/29 14:33:39;;;;;;;53.05;34.50;;;13.90;99.90;;;;;;5051004;28;20036;-83
2021/09/29 14:36:05;;;;;;;140.48;95.53;;;13.90;99.90;;;;;;5051459;28;20029;-82
2021/09/29 14:38:31;;;;;;;71.63;34.97;;;13.90;99.90;;;;;;5051342;28;20378;-82
2021/09/29 14:40:57;;;;;;;79.18;40.38;;;13.90;99.90;;;;;;5052643;28;20032;-82
2021/09/29 14:43:22;;;;;;;42.88;26.52;;;13.80;99.90;;;;;;5043203;28;20489;-82
2021/09/29 14:45:48;;;;;;;38.28;24.73;;;13.80;99.90;;;;;;5049798;28;20116;-83
2021/09/29 14:48:13;;;;;;;37.97;24.67;;;13.70;99.90;;;;;;5049972;28;20025;-83
2021/09/29 14:50:39;;;;;;;36.22;24.17;;;13.70;99.90;;;;;;5050809;28;20017;-82
2021/09/29 14:53:05;;;;;;;40.35;24.80;;;13.70;99.90;;;;;;5048445;28;20037;-83
2021/09/29 14:55:33;;;;;;;40.72;25.45;;;13.70;99.90;;;;;;5050845;28;20053;-82
2021/09/29 14:57:59;;;;;;;36.45;22.38;;;13.70;99.90;;;;;;5048680;28;20460;-83
2021/09/29 15:00:32;;;;;;;44.58;25.13;;;13.70;99.90;;;;;;5047936;28;20052;-83
2021/09/29 15:03:01;;;;;;;40.83;25.23;;;13.70;99.90;;;;;;5049089;28;20075;-83
2021/09/29 15:05:28;;;;;;;40.33;26.42;;;13.60;99.90;;;;;;5050090;28;20099;-83
2021/09/29 15:07:54;;;;;;;42.53;27.48;;;13.70;99.90;;;;;;5050594;28;20096;-83
2021/09/29 15:10:20;;;;;;;39.95;24.85;;;13.60;99.90;;;;;;5049139;28;20108;-83
2021/09/29 15:12:49;;;;;;;38.45;23.98;;;13.60;99.90;;;;;;5047623;28;20025;-83
2021/09/29 15:15:27;;;;;;;35.80;24.02;;;13.60;99.90;;;;;;5050433;28;20029;-83
2021/09/29 15:17:57;;;;;;;40.22;24.27;;;13.60;99.90;;;;;;5048712;28;20025;-83
2021/09/29 15:52:20;;;;;;;42.67;28.00;;;13.20;99.90;;;;;;5051841;28;20036;-83
2021/09/29 15:55:05;;;;;;;40.58;27.33;;;13.20;99.90;;;;;;5050743;28;20123;-83
2021/09/29 15:58:00;;;;;;;48.83;29.50;;;13.20;99.90;;;;;;5052126;28;20028;-83
2021/09/29 16:05:51;;;;;;;45.03;27.83;;;13.10;99.90;;;;;;5055836;28;20027;-83
2021/09/29 16:08:36;;;;;;;47.05;27.60;;;13.00;99.90;;;;;;5055019;28;20021;-83
2021/09/29 16:13:54;;;;;;;38.88;25.23;;;13.00;99.90;;;;;;5054296;28;20029;-83
2021/09/29 16:34:59;;;;;;;39.53;23.50;;;12.70;99.90;;;;;;5050901;28;20033;-82
2021/09/29 16:37:25;;;;;;;37.80;24.90;;;12.70;99.90;;;;;;5054596;28;20036;-83
2021/09/29 16:39:51;;;;;;;42.45;25.02;;;12.70;99.90;;;;;;5055102;28;20040;-83
2021/09/29 16:42:18;;;;;;;41.75;24.92;;;12.70;99.90;;;;;;5052606;28;20025;-83
2021/09/29 16:44:44;;;;;;;43.83;27.45;;;12.70;99.90;;;;;;5053388;28;20025;-82